Time;durP1;ratioP1;P1;durP2;ratioP2;P2;SDS_P1;SDS_P2;PMS_P1;PMS_P2;Temp;Humidity;BMP_temperature;BMP_pressure;BME280_temperature;BME280_humidity;BME280_pressure;Samples;Min_cycle;Max_cycle;Signal;HPM_P1;HPM_P2
2022/11/04 00:00:30;;;;;;;11.32;6.97;;;;;;;13.03;68.66;99392.00;4386377;32;33541;-64
2022/11/04 00:02:58;;;;;;;14.18;8.23;;;;;;;12.57;70.36;99391.59;4382941;32;33028;-65
2022/11/04 00:05:26;;;;;;;10.20;5.22;;;;;;;12.40;70.96;99389.56;4412627;32;34109;-63
2022/11/04 00:13:27;;;;;;;;;;;;;;;12.88;69.03;99355.81;4446365;32;34081;-63
2022/11/04 00:18:41;;;;;;;21.08;7.32;;;;;;;12.86;69.03;99363.13;4448626;32;34608;-64
2022/11/04 00:29:27;;;;;;;13.80;7.97;;;;;;;12.44;70.78;99349.88;4449404;32;32327;-62
2022/11/04 00:34:41;;;;;;;9.02;4.70;;;;;;;12.95;69.07;99343.50;4449281;32;33827;-64
2022/11/04 00:37:09;;;;;;;12.20;6.05;;;;;;;12.78;69.59;99337.84;4447669;32;34089;-64
2022/11/04 00:39:36;;;;;;;8.23;5.43;;;;;;;12.91;69.28;99336.72;4448156;32;33679;-63
2022/11/04 00:42:04;;;;;;;21.70;6.75;;;;;;;12.94;69.13;99323.88;4446515;32;34001;-61
2022/11/04 00:44:31;;;;;;;16.73;9.48;;;;;;;13.01;68.75;99326.84;4447542;32;35277;-61
2022/11/04 00:46:59;;;;;;;15.85;10.15;;;;;;;13.17;68.41;99307.47;4447808;32;34108;-62
2022/11/04 00:49:26;;;;;;;11.35;5.28;;;;;;;12.97;69.16;99310.16;4446393;32;34568;-62
2022/11/04 00:51:54;;;;;;;10.45;6.03;;;;;;;12.95;68.83;99300.53;4439328;32;33815;-63
2022/11/04 00:54:22;;;;;;;15.05;9.63;;;;;;;13.02;68.69;99309.72;4449362;32;35832;-62
2022/11/04 00:56:49;;;;;;;28.70;9.32;;;;;;;12.88;69.29;99320.88;4445888;32;33963;-62
2022/11/04 00:59:17;;;;;;;11.55;7.37;;;;;;;12.93;69.73;99310.56;4450154;32;33594;-64
2022/11/04 01:01:44;;;;;;;11.23;6.68;;;;;;;12.87;69.50;99306.59;4437090;32;34645;-62
2022/11/04 01:04:12;;;;;;;8.70;6.28;;;;;;;12.90;69.50;99318.88;4442940;32;33963;-64
2022/11/04 01:06:40;;;;;;;8.63;6.70;;;;;;;12.77;70.00;99308.41;4443818;32;34101;-63
2022/11/04 01:09:08;;;;;;;10.63;6.80;;;;;;;13.02;68.82;99313.25;4448808;32;34642;-64
2022/11/04 01:11:35;;;;;;;8.00;4.85;;;;;;;13.15;68.63;99312.97;4445497;32;33879;-63
2022/11/04 01:14:03;;;;;;;11.40;6.78;;;;;;;12.96;69.43;99318.34;4449166;32;34799;-64
2022/11/04 01:16:30;;;;;;;11.77;6.97;;;;;;;12.91;69.88;99310.72;4448936;32;32920;-64
2022/11/04 01:18:58;;;;;;;16.30;9.13;;;;;;;13.25;68.43;99305.78;4446357;32;32417;-64
2022/11/04 01:21:26;;;;;;;17.75;8.88;;;;;;;12.90;69.56;99308.16;4446419;32;34711;-64
2022/11/04 01:23:53;;;;;;;25.05;10.27;;;;;;;12.83;69.69;99297.97;4450440;32;33696;-63
2022/11/04 01:26:23;;;;;;;9.18;6.28;;;;;;;12.96;69.41;99286.09;4448687;32;32290;-64
2022/11/04 01:28:51;;;;;;;10.73;6.05;;;;;;;12.95;69.41;99285.25;4450416;32;33702;-62
2022/11/04 01:31:21;;;;;;;6.87;3.90;;;;;;;12.98;69.48;99287.66;4441821;32;33737;-62
2022/11/04 01:33:49;;;;;;;7.78;5.60;;;;;;;12.99;69.50;99296.56;4444891;32;34098;-63
2022/11/04 01:36:18;;;;;;;13.57;7.75;;;;;;;13.26;68.77;99290.53;4443369;32;33183;-62
2022/11/04 01:38:46;;;;;;;29.30;8.23;;;;;;;12.88;69.59;99285.97;4444836;32;34474;-63
2022/11/04 01:41:32;;;;;;;12.77;7.10;;;;;;;12.83;69.79;99275.63;4440059;32;33821;-63
2022/11/04 01:44:20;;;;;;;10.25;5.97;;;;;;;13.16;68.77;99265.44;4447197;32;34000;-64
2022/11/04 01:46:50;;;;;;;20.17;6.05;;;;;;;13.22;68.63;99241.53;4443634;32;33414;-64
2022/11/04 01:49:22;;;;;;;11.35;6.25;;;;;;;13.04;69.60;99248.66;4434648;32;34479;-64
2022/11/04 01:51:52;;;;;;;14.43;9.02;;;;;;;12.67;70.97;99243.97;4447360;32;33769;-62
2022/11/04 01:54:20;;;;;;;13.38;9.35;;;;;;;13.22;68.91;99244.22;4445439;32;33878;-63
2022/11/04 01:56:48;;;;;;;10.95;6.45;;;;;;;13.15;69.24;99245.78;4445403;32;34288;-64
2022/11/04 01:59:20;;;;;;;16.92;7.93;;;;;;;12.92;70.29;99239.03;4442720;32;34838;-65
2022/11/04 02:01:48;;;;;;;15.00;7.35;;;;;;;12.94;69.98;99237.91;4445464;32;32596;-63
2022/11/04 02:04:25;;;;;;;15.82;8.00;;;;;;;13.38;68.49;99232.91;4449160;32;35108;-64
2022/11/04 02:07:00;;;;;;;8.30;6.07;;;;;;;13.87;66.76;99225.53;4444504;32;35279;-62
2022/11/04 02:09:29;;;;;;;10.90;5.78;;;;;;;13.53;67.51;99227.94;4431205;32;32645;-62
2022/11/04 02:14:45;;;;;;;22.42;9.30;;;;;;;13.35;68.83;99213.53;4446771;32;32710;-63
2022/11/04 02:17:18;;;;;;;15.52;7.82;;;;;;;13.84;66.83;99225.00;4445987;32;32956;-63
2022/11/04 02:20:05;;;;;;;11.55;7.50;;;;;;;13.84;67.08;99216.94;4448299;32;33765;-62
2022/11/04 02:22:46;;;;;;;9.48;7.43;;;;;;;12.90;70.08;99204.25;4450201;32;33643;-63
2022/11/04 02:25:32;;;;;;;12.48;4.90;;;;;;;13.19;69.53;99195.28;4445510;32;35135;-63
2022/11/04 02:28:14;;;;;;;11.00;7.18;;;;;;;13.16;69.17;99192.87;4443109;32;33940;-62
2022/11/04 02:30:59;;;;;;;17.02;7.97;;;;;;;13.87;67.00;99195.97;4450256;32;32292;-64
2022/11/04 02:33:38;;;;;;;23.43;11.00;;;;;;;13.10;70.24;99201.53;4430754;32;33579;-62
2022/11/04 02:36:32;;;;;;;13.40;7.57;;;;;;;12.62;71.92;99180.97;4446134;32;34848;-65
2022/11/04 02:39:17;;;;;;;15.52;7.90;;;;;;;13.97;66.65;99175.22;4444917;32;34314;-64
2022/11/04 02:42:03;;;;;;;14.82;7.00;;;;;;;13.72;67.71;99167.84;4447903;32;33523;-63
2022/11/04 02:44:35;;;;;;;12.55;7.65;;;;;;;13.35;69.11;99173.22;4448655;32;33759;-64
2022/11/04 02:47:06;;;;;;;18.95;9.10;;;;;;;13.79;67.65;99166.25;4448841;32;34995;-63
2022/11/04 02:49:37;;;;;;;11.63;8.32;;;;;;;13.40;69.13;99171.78;4433882;32;34108;-63
2022/11/04 02:52:09;;;;;;;25.55;10.88;;;;;;;13.63;68.30;99174.97;4430588;32;34817;-64
2022/11/04 02:54:57;;;;;;;14.60;7.22;;;;;;;13.12;69.96;99184.28;4446260;32;34974;-62
2022/11/04 02:57:29;;;;;;;16.90;6.32;;;;;;;13.16;69.62;99179.47;4424770;32;32897;-62
2022/11/04 03:00:07;;;;;;;15.10;8.98;;;;;;;13.90;67.42;99184.91;4444015;32;35259;-63
2022/11/04 03:02:44;;;;;;;7.60;5.95;;;;;;;13.97;66.85;99179.75;4412290;32;33807;-63
2022/11/04 03:05:15;;;;;;;16.98;8.00;;;;;;;13.80;67.08;99173.31;4428902;32;33703;-63
2022/11/04 03:07:44;;;;;;;18.70;7.78;;;;;;;13.40;68.87;99165.56;4420366;32;34349;-63
2022/11/04 03:10:33;;;;;;;17.08;8.35;;;;;;;13.80;67.27;99151.78;4426874;32;34137;-64
2022/11/04 03:13:05;;;;;;;15.70;7.62;;;;;;;12.79;71.32;99146.16;4421499;32;34802;-62
2022/11/04 03:15:34;;;;;;;18.35;9.05;;;;;;;12.86;71.50;99145.59;4435845;32;33423;-62
2022/11/04 03:18:37;;;;;;;9.10;5.47;;;;;;;12.67;72.27;99128.50;4431529;32;33299;-63
2022/11/04 03:21:06;;;;;;;11.82;6.87;;;;;;;12.77;71.81;99120.44;4413717;32;32974;-64
2022/11/04 03:23:34;;;;;;;8.95;5.05;;;;;;;12.51;72.52;99115.66;4422521;32;34102;-62
2022/11/04 03:26:10;;;;;;;16.25;9.05;;;;;;;12.59;72.31;99113.12;4437510;32;34949;-62
2022/11/04 03:28:42;;;;;;;15.32;10.52;;;;;;;12.52;72.84;99111.13;4424756;32;33698;-63
2022/11/04 03:31:22;;;;;;;7.40;3.15;;;;;;;12.52;73.10;99109.31;4438864;32;34074;-64
2022/11/04 03:33:51;;;;;;;14.85;7.45;;;;;;;12.63;72.69;99113.69;4421497;32;33493;-64
2022/11/04 03:36:20;;;;;;;17.77;7.28;;;;;;;12.72;71.97;99112.00;4441245;32;33677;-65
2022/11/04 03:38:49;;;;;;;11.15;5.65;;;;;;;12.30;73.94;99115.81;4421957;32;33718;-64
2022/11/04 03:41:36;;;;;;;11.70;5.93;;;;;;;12.35;73.73;99112.69;4421280;32;32711;-63
2022/11/04 03:44:04;;;;;;;7.12;4.93;;;;;;;12.06;74.71;99110.84;4419655;32;33797;-65
2022/11/04 03:46:31;;;;;;;15.25;8.65;;;;;;;12.26;73.80;99110.88;4433066;32;32811;-65
2022/11/04 03:48:59;;;;;;;18.65;12.18;;;;;;;12.27;73.83;99104.53;4423024;32;34049;-65
2022/11/04 03:51:27;;;;;;;28.35;18.55;;;;;;;11.95;75.25;99102.09;4436352;32;32792;-64
2022/11/04 03:53:55;;;;;;;7.05;4.82;;;;;;;12.18;73.96;99100.84;4452724;32;34758;-64
2022/11/04 03:57:04;;;;;;;11.07;7.65;;;;;;;12.42;73.22;99081.63;4442423;32;34771;-65
2022/11/04 03:59:46;;;;;;;17.67;9.15;;;;;;;12.51;73.19;99072.72;4442681;32;31452;-64
2022/11/04 04:02:20;;;;;;;12.65;6.15;;;;;;;12.57;72.19;99063.25;4449945;32;35088;-63
2022/11/04 04:05:01;;;;;;;12.60;6.72;;;;;;;11.84;76.33;99055.63;4439105;32;33739;-65
2022/11/04 04:07:36;;;;;;;16.70;7.55;;;;;;;11.83;76.29;99055.75;4432831;32;35302;-63
2022/11/04 04:13:02;;;;;;;19.12;12.18;;;;;;;12.02;75.91;99054.97;4446925;32;34441;-63
2022/11/04 04:15:39;;;;;;;19.70;10.25;;;;;;;12.63;73.23;99059.16;4449315;32;34476;-65
2022/11/04 04:18:12;;;;;;;16.48;8.48;;;;;;;11.98;75.23;99046.34;4440271;32;33765;-62
2022/11/04 04:20:41;;;;;;;12.02;8.40;;;;;;;11.99;75.36;99049.88;4446617;32;35084;-63
2022/11/04 04:28:46;;;;;;;15.25;8.95;;;;;;;12.48;74.05;99056.06;4443268;32;33919;-66
2022/11/04 04:31:48;;;;;;;18.05;6.72;;;;;;;12.32;74.39;99057.47;4450142;32;33158;-66
2022/11/04 04:34:05;;;;;;;21.10;11.05;;;;;;;12.20;75.07;99060.44;4440999;32;34271;-62
2022/11/04 04:36:45;;;;;;;23.10;10.80;;;;;;;11.98;75.07;99056.25;4448415;32;33283;-64
2022/11/04 04:45:04;;;;;;;17.70;10.20;;;;;;;12.76;71.83;99043.56;4440713;32;35222;-65
2022/11/04 04:47:42;;;;;;;34.05;6.70;;;;;;;12.55;72.53;99046.44;4445664;32;33492;-65
2022/11/04 04:50:13;;;;;;;37.55;8.50;;;;;;;12.61;72.29;99039.66;4449481;32;34279;-64
2022/11/04 04:52:46;;;;;;;14.75;8.13;;;;;;;12.34;73.21;99034.03;4438042;32;34923;-63
2022/11/04 04:55:15;;;;;;;31.67;12.98;;;;;;;12.40;73.31;99043.38;4450659;32;35210;-63
2022/11/04 04:57:43;;;;;;;13.68;8.50;;;;;;;12.37;73.43;99040.13;4448845;32;33726;-63
2022/11/04 05:00:16;;;;;;;40.67;10.43;;;;;;;12.53;72.11;99043.06;4451084;32;34719;-62
2022/11/04 05:02:44;;;;;;;18.67;10.18;;;;;;;12.74;71.35;99043.69;4450921;32;34132;-76
2022/11/04 05:05:12;;;;;;;18.55;11.55;;;;;;;12.59;71.98;99032.59;4449831;32;33908;-63
2022/11/04 05:07:39;;;;;;;15.63;9.38;;;;;;;12.38;73.07;99047.19;4450938;32;33695;-65
2022/11/04 05:10:10;;;;;;;22.27;14.13;;;;;;;12.00;74.56;99032.78;4451964;32;33882;-65
2022/11/04 05:15:26;;;;;;;21.08;11.93;;;;;;;12.81;70.77;99039.47;4446650;32;34117;-66
2022/11/04 05:17:58;;;;;;;14.35;9.10;;;;;;;12.27;71.75;99026.72;4452283;32;32484;-63
2022/11/04 05:20:26;;;;;;;19.05;12.52;;;;;;;12.35;72.07;99034.88;4452152;32;33867;-65
2022/11/04 05:22:54;;;;;;;14.77;10.20;;;;;;;12.83;70.10;99037.47;4446950;32;34086;-63
2022/11/04 05:25:21;;;;;;;15.85;8.90;;;;;;;12.16;72.12;99034.91;4443407;32;35183;-64
2022/11/04 05:27:49;;;;;;;19.35;9.70;;;;;;;12.15;72.87;99034.06;4450898;32;33575;-63
2022/11/04 05:30:16;;;;;;;13.55;8.32;;;;;;;12.03;72.74;99029.81;4448851;32;35066;-62
2022/11/04 05:32:44;;;;;;;26.35;13.77;;;;;;;12.41;71.25;99034.31;4450225;32;35199;-63
2022/11/04 05:35:12;;;;;;;17.40;10.73;;;;;;;11.77;73.51;99027.66;4447056;32;33957;-63
2022/11/04 05:37:39;;;;;;;15.75;11.05;;;;;;;11.63;74.00;99025.41;4447008;32;34585;-63
2022/11/04 05:40:07;;;;;;;12.18;8.07;;;;;;;11.63;74.36;99038.81;4446007;32;33826;-62
2022/11/04 05:42:35;;;;;;;16.60;10.50;;;;;;;11.27;76.07;99050.97;4449129;32;34912;-63
2022/11/04 05:45:03;;;;;;;17.95;8.85;;;;;;;11.52;74.75;99049.63;4446695;32;34243;-63
2022/11/04 05:47:31;;;;;;;18.17;10.63;;;;;;;11.68;74.36;99051.78;4450540;32;33608;-63
2022/11/04 05:49:58;;;;;;;23.45;10.52;;;;;;;11.26;76.28;99051.97;4449459;32;34704;-63
2022/11/04 05:52:26;;;;;;;21.67;12.70;;;;;;;12.00;72.79;99047.03;4440483;32;35195;-62
2022/11/04 05:54:53;;;;;;;14.23;8.40;;;;;;;11.75;74.06;99044.88;4446802;32;34218;-63
2022/11/04 05:57:21;;;;;;;22.77;11.88;;;;;;;12.30;71.81;99054.09;4452343;32;32501;-62
2022/11/04 05:59:48;;;;;;;21.50;11.65;;;;;;;12.31;71.67;99045.06;4451224;32;33922;-65
2022/11/04 06:02:16;;;;;;;13.98;8.18;;;;;;;11.63;74.62;99049.53;4453114;32;32894;-65
2022/11/04 06:04:44;;;;;;;21.70;9.43;;;;;;;11.93;72.56;99045.06;4447731;32;34203;-63
2022/11/04 06:07:12;;;;;;;17.60;12.40;;;;;;;12.01;72.24;99038.03;4452004;32;34459;-64
2022/11/04 06:09:39;;;;;;;15.55;6.37;;;;;;;12.47;70.53;99043.63;4452929;32;33750;-64
2022/11/04 06:12:13;;;;;;;21.83;10.30;;;;;;;12.17;71.52;99036.62;4453234;32;34169;-65
2022/11/04 06:14:42;;;;;;;14.60;9.50;;;;;;;12.09;72.05;99034.63;4450661;32;34096;-62
2022/11/04 06:17:17;;;;;;;15.27;5.70;;;;;;;12.06;72.27;99035.75;4449646;32;33716;-64
2022/11/04 06:19:44;;;;;;;23.15;11.32;;;;;;;11.22;75.84;99040.66;4451716;32;33926;-64
2022/11/04 06:22:14;;;;;;;7.12;4.80;;;;;;;11.39;75.01;99039.16;4452720;32;34059;-65
2022/11/04 06:24:42;;;;;;;14.27;7.78;;;;;;;11.27;75.83;99037.56;4451672;32;33812;-65
2022/11/04 06:27:10;;;;;;;37.05;13.52;;;;;;;11.27;76.04;99040.25;4447430;32;34537;-63
2022/11/04 06:29:41;;;;;;;17.50;12.15;;;;;;;11.34;75.35;99049.47;4439867;32;33718;-64
2022/11/04 06:32:10;;;;;;;34.35;13.98;;;;;;;11.54;74.43;99050.34;4452924;32;33175;-63
2022/11/04 06:34:39;;;;;;;10.57;6.85;;;;;;;11.18;76.64;99055.31;4451264;32;33012;-63
2022/11/04 06:37:08;;;;;;;8.85;4.60;;;;;;;11.16;76.94;99058.13;4449573;32;33875;-63
2022/11/04 06:39:35;;;;;;;10.75;7.28;;;;;;;11.68;74.33;99049.94;4444895;32;34955;-64
2022/11/04 06:42:04;;;;;;;23.40;11.60;;;;;;;11.26;75.78;99057.31;4452685;32;33906;-63
2022/11/04 06:44:33;;;;;;;11.25;7.00;;;;;;;11.37;75.45;99052.72;4451576;32;34193;-64
2022/11/04 06:47:00;;;;;;;24.73;10.95;;;;;;;11.66;74.16;99044.72;4449044;32;33908;-64
2022/11/04 06:49:28;;;;;;;15.90;7.93;;;;;;;11.55;74.03;99050.19;4451418;32;33863;-64
2022/11/04 06:51:55;;;;;;;18.05;9.30;;;;;;;11.51;74.93;99047.94;4450801;32;34035;-64
2022/11/04 06:54:23;;;;;;;21.30;9.73;;;;;;;11.32;76.10;99044.22;4452779;32;34258;-63
2022/11/04 06:56:51;;;;;;;12.85;8.23;;;;;;;11.68;74.51;99047.25;4447284;32;34827;-64
2022/11/04 06:59:19;;;;;;;18.62;9.27;;;;;;;11.98;73.56;99053.56;4441209;32;33804;-66
2022/11/04 07:01:48;;;;;;;19.35;11.45;;;;;;;11.75;73.57;99058.28;4451769;32;34333;-63
2022/11/04 07:04:16;;;;;;;29.63;11.15;;;;;;;11.83;73.05;99051.25;4446834;32;32819;-66
2022/11/04 07:06:44;;;;;;;15.90;9.23;;;;;;;10.87;76.92;99052.62;4451425;32;33577;-63
2022/11/04 07:09:13;;;;;;;22.90;13.38;;;;;;;11.32;76.44;99057.63;4448287;32;32366;-63
2022/11/04 07:11:42;;;;;;;10.00;6.10;;;;;;;11.08;76.75;99057.13;4450666;32;33903;-64
2022/11/04 07:14:09;;;;;;;35.97;12.73;;;;;;;11.38;75.73;99066.94;4451730;32;34831;-64
2022/11/04 07:16:37;;;;;;;14.38;8.73;;;;;;;11.77;73.80;99050.94;4450516;32;34272;-64
2022/11/04 07:19:05;;;;;;;22.15;11.30;;;;;;;11.38;74.96;99053.56;4449724;32;32770;-64
2022/11/04 07:21:33;;;;;;;12.93;5.75;;;;;;;11.63;74.15;99050.38;4448979;32;34131;-65
2022/11/04 07:24:01;;;;;;;11.85;7.25;;;;;;;11.57;73.89;99052.75;4451418;32;35557;-63
2022/11/04 07:26:28;;;;;;;19.25;9.63;;;;;;;11.88;72.93;99053.53;4452571;32;32379;-63
2022/11/04 07:28:56;;;;;;;19.80;8.02;;;;;;;11.61;73.85;99054.16;4453052;32;33900;-64
2022/11/04 07:31:24;;;;;;;15.05;9.55;;;;;;;11.48;74.38;99062.47;4448767;32;35148;-70
2022/11/04 07:33:52;;;;;;;20.98;12.35;;;;;;;11.33;74.70;99056.66;4450229;32;33011;-65
2022/11/04 07:36:20;;;;;;;18.60;10.88;;;;;;;11.83;72.62;99056.59;4446713;32;33693;-65
2022/11/04 07:38:47;;;;;;;20.30;11.07;;;;;;;11.61;73.76;99056.84;4450532;32;33899;-64
2022/11/04 07:41:16;;;;;;;24.37;11.38;;;;;;;11.18;75.92;99055.31;4449585;32;33791;-64
2022/11/04 07:43:51;;;;;;;19.83;8.75;;;;;;;11.29;74.62;99044.50;4452090;32;35199;-66
2022/11/04 07:46:19;;;;;;;12.32;7.50;;;;;;;12.07;71.31;99045.50;4450754;32;33525;-65
2022/11/04 07:48:46;;;;;;;9.38;6.03;;;;;;;11.37;73.65;99044.66;4452774;32;33413;-64
2022/11/04 07:51:16;;;;;;;24.02;11.25;;;;;;;11.55;73.35;99046.69;4448702;32;34216;-67
2022/11/04 07:53:43;;;;;;;18.95;9.80;;;;;;;11.62;72.92;99037.09;4444954;32;34840;-66
2022/11/04 07:56:12;;;;;;;22.25;11.63;;;;;;;11.55;73.27;99035.94;4449266;32;33554;-65
2022/11/04 07:58:40;;;;;;;19.35;9.68;;;;;;;11.59;73.04;99042.75;4450080;32;33628;-66
2022/11/04 08:01:10;;;;;;;15.75;11.18;;;;;;;11.61;72.99;99051.47;4442071;32;34102;-65
2022/11/04 08:03:38;;;;;;;24.00;10.82;;;;;;;11.46;73.65;99043.00;4449686;32;35612;-63
2022/11/04 08:06:08;;;;;;;11.43;6.47;;;;;;;11.61;72.22;99028.22;4446565;32;34490;-65
2022/11/04 08:08:36;;;;;;;14.20;9.18;;;;;;;11.51;73.09;99031.88;4451096;32;33727;-64
2022/11/04 08:11:07;;;;;;;13.82;5.32;;;;;;;11.62;72.12;99029.91;4450709;32;35024;-64
2022/11/04 08:13:42;;;;;;;17.10;9.00;;;;;;;11.91;71.36;99023.78;4451594;32;35270;-63
2022/11/04 08:16:21;;;;;;;18.23;10.07;;;;;;;11.34;72.75;99028.88;4448758;32;32330;-63
2022/11/04 08:18:51;;;;;;;12.27;7.93;;;;;;;10.88;75.39;99027.59;4453460;32;34064;-64
2022/11/04 08:21:19;;;;;;;12.95;8.82;;;;;;;11.15;74.63;99035.00;4449600;32;33263;-63
2022/11/04 08:23:47;;;;;;;5.95;4.00;;;;;;;11.58;72.88;99030.31;4451415;32;34047;-64
2022/11/04 08:26:16;;;;;;;9.75;6.70;;;;;;;10.75;76.27;99023.41;4450521;32;33502;-64
2022/11/04 08:28:44;;;;;;;23.67;13.07;;;;;;;11.36;73.33;99013.50;4451772;32;33856;-65
2022/11/04 08:31:17;;;;;;;16.17;9.95;;;;;;;11.52;72.15;99015.63;4445619;32;32658;-64
2022/11/04 08:33:48;;;;;;;10.63;5.78;;;;;;;11.84;71.27;99009.19;4450051;32;34167;-63
2022/11/04 08:36:30;;;;;;;16.60;10.65;;;;;;;11.81;71.32;99014.81;4440874;32;33681;-65
2022/11/04 08:38:58;;;;;;;21.55;11.20;;;;;;;11.84;71.28;99019.91;4449431;32;33846;-64
2022/11/04 08:41:29;;;;;;;21.92;10.88;;;;;;;11.39;72.54;99007.84;4445009;32;34795;-64
2022/11/04 08:44:02;;;;;;;26.92;11.43;;;;;;;11.69;71.20;99002.56;4451671;32;34047;-65
2022/11/04 08:46:37;;;;;;;16.17;10.88;;;;;;;12.00;69.97;98997.91;4450185;32;33225;-62
2022/11/04 08:49:05;;;;;;;15.77;8.98;;;;;;;11.72;70.80;99002.25;4448693;32;32245;-63
2022/11/04 08:51:40;;;;;;;25.95;16.17;;;;;;;11.65;71.58;99001.97;4433226;32;34155;-65
2022/11/04 08:54:08;;;;;;;27.83;14.10;;;;;;;11.70;71.19;99002.41;4443593;32;32859;-64
2022/11/04 08:56:37;;;;;;;10.25;8.15;;;;;;;11.75;71.02;99001.97;4449315;32;34103;-67
2022/11/04 08:59:05;;;;;;;20.73;12.15;;;;;;;11.65;71.52;98992.12;4446106;32;33933;-64
2022/11/04 09:01:35;;;;;;;28.02;15.65;;;;;;;12.00;70.20;98990.72;4444002;32;35258;-65
2022/11/04 09:04:04;;;;;;;16.23;10.70;;;;;;;11.85;70.83;98982.28;4448165;32;34240;-66
2022/11/04 09:06:35;;;;;;;32.60;15.65;;;;;;;12.03;70.21;98973.50;4446935;32;33440;-63
2022/11/04 09:09:04;;;;;;;20.20;11.35;;;;;;;11.62;71.80;98976.31;4451093;32;33095;-64
2022/11/04 09:11:37;;;;;;;18.02;10.18;;;;;;;11.52;72.49;98971.91;4446982;32;34170;-64
2022/11/04 09:14:04;;;;;;;18.52;11.30;;;;;;;11.09;74.29;98975.78;4440393;32;35169;-65
2022/11/04 09:16:33;;;;;;;21.75;12.55;;;;;;;11.57;72.47;98977.72;4447113;32;34415;-65
2022/11/04 09:19:01;;;;;;;12.13;7.47;;;;;;;11.76;71.85;98979.56;4441750;32;32765;-65
2022/11/04 09:21:28;;;;;;;15.32;10.50;;;;;;;11.65;72.16;98984.06;4447832;32;35288;-65
2022/11/04 09:23:56;;;;;;;18.73;11.23;;;;;;;11.19;73.42;98979.34;4448636;32;34064;-63
2022/11/04 09:26:24;;;;;;;30.25;9.55;;;;;;;11.61;72.23;98976.44;4443501;32;33526;-64
2022/11/04 09:28:55;;;;;;;17.25;12.18;;;;;;;11.28;73.48;98975.84;4448073;32;33876;-64
2022/11/04 09:31:24;;;;;;;17.15;7.72;;;;;;;11.66;71.92;98972.34;4448870;32;35421;-63
2022/11/04 09:33:54;;;;;;;24.58;8.23;;;;;;;11.65;71.63;98961.75;4445342;32;34221;-64
2022/11/04 09:36:21;;;;;;;28.17;11.75;;;;;;;11.57;71.82;98959.78;4449766;32;35198;-64
2022/11/04 09:38:49;;;;;;;16.65;11.00;;;;;;;11.64;72.00;98958.25;4441597;32;34720;-64
2022/11/04 09:41:46;;;;;;;24.12;11.07;;;;;;;11.87;70.84;98961.50;4443979;32;34124;-65
2022/11/04 09:44:49;;;;;;;16.48;9.70;;;;;;;11.84;71.02;98950.19;4449006;32;33911;-64
2022/11/04 09:47:38;;;;;;;11.35;8.25;;;;;;;11.86;70.96;98951.78;4446099;32;33441;-64
2022/11/04 09:50:10;;;;;;;14.73;8.52;;;;;;;11.57;72.33;98935.66;4448492;32;33889;-65
2022/11/04 09:52:41;;;;;;;20.05;8.43;;;;;;;11.52;72.67;98923.69;4436753;32;32398;-66
2022/11/04 09:55:11;;;;;;;17.50;11.50;;;;;;;11.76;72.62;98918.75;4449317;32;34878;-66
2022/11/04 09:57:39;;;;;;;14.25;9.68;;;;;;;11.64;73.20;98919.88;4448716;32;32864;-65
2022/11/04 10:00:13;;;;;;;15.20;8.75;;;;;;;11.39;74.66;98913.22;4445576;32;32656;-65
2022/11/04 10:02:49;;;;;;;14.75;8.77;;;;;;;11.27;75.39;98914.34;4442489;32;33015;-65
2022/11/04 10:05:16;;;;;;;;;;;;;;;11.46;74.32;98905.47;4449940;32;31991;-64
2022/11/04 10:08:22;;;;;;;15.18;6.65;;;;;;;11.42;74.52;98896.87;4450249;32;34213;-65
2022/11/04 10:11:07;;;;;;;24.77;12.32;;;;;;;11.11;75.95;98901.53;4446920;32;31101;-64
2022/11/04 10:13:56;;;;;;;9.85;7.70;;;;;;;10.94;77.24;98898.50;4434603;32;35022;-66
2022/11/04 10:16:43;;;;;;;13.35;10.05;;;;;;;11.35;75.29;98901.94;4447853;32;34099;-65
2022/11/04 10:19:46;;;;;;;9.88;6.37;;;;;;;11.34;75.52;98902.09;4449114;32;34816;-64
2022/11/04 10:22:34;;;;;;;11.30;7.12;;;;;;;11.48;75.06;98904.34;4438048;32;34909;-64
2022/11/04 10:25:08;;;;;;;6.20;4.25;;;;;;;11.48;74.80;98895.47;4449902;32;34037;-65
2022/11/04 10:27:38;;;;;;;14.43;8.32;;;;;;;11.43;74.63;98891.41;4447412;32;32855;-64
2022/11/04 10:30:15;;;;;;;16.70;10.45;;;;;;;11.38;75.44;98892.78;4434417;32;36002;-63
2022/11/04 10:32:58;;;;;;;20.73;12.23;;;;;;;11.01;77.60;98888.13;4432224;32;33584;-62
2022/11/04 10:35:34;;;;;;;19.33;13.30;;;;;;;11.16;76.44;98886.72;4446055;32;32798;-63
2022/11/04 10:38:32;;;;;;;10.57;6.72;;;;;;;10.59;79.08;98885.59;4445880;32;34107;-65
2022/11/04 10:41:00;;;;;;;15.60;7.15;;;;;;;11.80;74.38;98881.75;4449405;32;33954;-65
2022/11/04 10:43:36;;;;;;;28.25;15.90;;;;;;;11.68;74.29;98873.03;4445054;32;33705;-65
2022/11/04 10:46:44;;;;;;;25.95;13.38;;;;;;;11.83;73.70;98866.22;4452294;32;35204;-64
2022/11/04 10:49:42;;;;;;;10.85;7.40;;;;;;;11.63;74.92;98868.09;4448550;32;33906;-65
2022/11/04 10:52:34;;;;;;;12.88;8.60;;;;;;;11.39;76.49;98859.66;4445658;32;33635;-65
2022/11/04 10:55:01;;;;;;;13.32;8.80;;;;;;;11.53;75.91;98861.91;4443879;32;33829;-67
2022/11/04 10:57:29;;;;;;;24.52;13.93;;;;;;;11.40;76.67;98862.19;4443523;32;33894;-64
2022/11/04 11:00:02;;;;;;;18.48;7.47;;;;;;;10.82;79.67;98862.16;4446535;32;34232;-63
2022/11/04 11:02:36;;;;;;;15.18;10.70;;;;;;;11.30;77.18;98863.16;4442379;32;34760;-61
2022/11/04 11:05:16;;;;;;;21.45;11.68;;;;;;;11.57;75.47;98857.94;4445370;32;34037;-62
2022/11/04 11:07:45;;;;;;;20.77;8.32;;;;;;;11.12;77.09;98850.47;4445836;32;34203;-63
2022/11/04 11:10:24;;;;;;;11.80;8.52;;;;;;;11.71;75.06;98856.66;4448912;32;32626;-62
2022/11/04 11:13:06;;;;;;;17.65;11.10;;;;;;;11.69;75.49;98861.34;4448076;32;34441;-63
2022/11/04 11:15:37;;;;;;;22.08;12.65;;;;;;;11.35;76.42;98856.41;4448538;32;33811;-64
2022/11/04 11:18:04;;;;;;;23.27;11.38;;;;;;;11.32;76.64;98864.72;4434732;32;34144;-62
2022/11/04 11:20:36;;;;;;;14.75;8.35;;;;;;;12.13;73.41;98858.97;4446370;32;33209;-65
2022/11/04 11:23:08;;;;;;;19.08;6.28;;;;;;;11.80;74.36;98860.31;4448671;32;32078;-63
2022/11/04 11:25:44;;;;;;;17.55;10.25;;;;;;;12.06;73.48;98855.19;4444934;32;32621;-63
2022/11/04 11:28:20;;;;;;;22.73;10.33;;;;;;;11.95;73.62;98852.72;4437964;32;35190;-64
2022/11/04 11:30:48;;;;;;;10.85;8.07;;;;;;;11.97;74.04;98846.19;4435704;32;34192;-64
2022/11/04 11:33:23;;;;;;;19.23;11.40;;;;;;;11.58;76.29;98856.09;4444331;32;33925;-64
2022/11/04 11:35:58;;;;;;;18.40;8.60;;;;;;;12.12;73.50;98843.91;4440938;32;34046;-63
2022/11/04 11:38:27;;;;;;;7.28;4.12;;;;;;;11.70;75.25;98841.56;4434539;32;33735;-65
2022/11/04 11:41:09;;;;;;;25.88;11.82;;;;;;;12.11;73.29;98839.53;4433123;32;34126;-62
2022/11/04 11:43:52;;;;;;;23.23;13.40;;;;;;;11.61;74.77;98839.75;4443272;32;33681;-62
2022/11/04 11:46:25;;;;;;;26.52;13.85;;;;;;;11.82;74.82;98818.97;4450785;32;34935;-64
2022/11/04 11:49:02;;;;;;;26.55;14.35;;;;;;;12.10;73.82;98814.53;4445268;32;34898;-64
2022/11/04 11:51:31;;;;;;;25.30;14.10;;;;;;;11.88;74.46;98825.63;4440556;32;34165;-65
2022/11/04 11:54:15;;;;;;;23.75;13.62;;;;;;;11.55;75.21;98810.84;4429904;32;33073;-64
2022/11/04 11:56:47;;;;;;;22.48;17.20;;;;;;;12.16;73.34;98805.03;4449894;32;33407;-63
2022/11/04 11:59:48;;;;;;;16.98;11.30;;;;;;;12.14;73.65;98804.37;4445026;32;33839;-64
2022/11/04 12:03:06;;;;;;;21.77;15.43;;;;;;;11.92;74.44;98794.84;4443834;32;32972;-62
2022/11/04 12:05:44;;;;;;;25.60;17.98;;;;;;;12.54;71.90;98792.44;4433993;32;34637;-64
2022/11/04 12:09:04;;;;;;;29.00;14.30;;;;;;;11.66;75.76;98782.03;4446069;32;33402;-63
2022/11/04 12:12:15;;;;;;;28.08;14.48;;;;;;;11.79;75.32;98781.72;4438940;32;33968;-63
2022/11/04 12:14:55;;;;;;;30.12;16.83;;;;;;;11.93;75.09;98766.19;4422252;32;32639;-64
2022/11/04 12:17:38;;;;;;;20.15;10.85;;;;;;;12.06;74.79;98769.38;4448051;32;33720;-65
2022/11/04 12:20:23;;;;;;;24.70;12.75;;;;;;;12.03;74.77;98761.63;4447958;32;32149;-64
2022/11/04 12:23:03;;;;;;;32.53;17.67;;;;;;;12.04;74.95;98764.19;4447236;32;33983;-63
2022/11/04 12:25:35;;;;;;;23.02;11.07;;;;;;;12.15;74.22;98747.03;4448060;32;35115;-64
2022/11/04 12:28:27;;;;;;;14.35;8.55;;;;;;;12.13;74.16;98740.97;4448881;32;33510;-61
2022/11/04 12:31:10;;;;;;;22.83;11.27;;;;;;;11.66;76.60;98732.97;4448550;32;33790;-65